Time;durP1;ratioP1;P1;durP2;ratioP2;P2;SDS_P1;SDS_P2;PMS_P1;PMS_P2;Temp;Humidity;BMP_temperature;BMP_pressure;BME280_temperature;BME280_humidity;BME280_pressure;Samples;Min_cycle;Max_cycle;Signal;HPM_P1;HPM_P2
2023/02/26 00:01:15;;;;;;;28.30;15.80;;;;;;;0.92;100.00;97756.09;270798;1268;22550;-90
2023/02/26 00:07:20;;;;;;;34.90;16.40;;;;;;;0.93;100.00;97779.80;270848;1260;22529;-90
2023/02/26 00:13:23;;;;;;;24.00;14.60;;;;;;;0.88;100.00;97794.52;271670;1268;24215;-90
2023/02/26 00:19:25;;;;;;;19.90;11.40;;;;;;;0.80;100.00;97797.28;271789;1268;22383;-90
2023/02/26 00:25:27;;;;;;;23.30;13.60;;;;;;;0.76;100.00;97799.70;271610;1269;22648;-90
2023/02/26 00:31:32;;;;;;;23.80;15.20;;;;;;;0.79;100.00;97805.50;269779;1258;22533;-89
2023/02/26 00:38:05;;;;;;;25.50;14.80;;;;;;;0.82;100.00;97812.90;270046;1268;22747;-90
2023/02/26 00:44:07;;;;;;;24.00;14.20;;;;;;;0.82;100.00;97831.14;271424;1268;22507;-90
2023/02/26 00:50:12;;;;;;;24.00;14.60;;;;;;;0.81;100.00;97834.49;271268;1262;22554;-90
2023/02/26 00:56:15;;;;;;;27.60;14.90;;;;;;;0.83;100.00;97845.88;270146;1269;25369;-89
2023/02/26 01:02:19;;;;;;;26.20;13.30;;;;;;;0.83;100.00;97847.56;269851;1260;22402;-89
2023/02/26 01:08:32;;;;;;;22.70;12.70;;;;;;;0.81;100.00;97851.67;271464;1268;24389;-89
2023/02/26 01:14:36;;;;;;;20.70;13.70;;;;;;;0.77;100.00;97842.70;270500;1269;22923;-89
2023/02/26 01:20:47;;;;;;;26.30;14.90;;;;;;;0.78;100.00;97833.79;272177;1268;22325;-90
2023/02/26 01:26:49;;;;;;;24.00;15.40;;;;;;;0.80;100.00;97827.55;271886;1270;23367;-90
2023/02/26 01:33:19;;;;;;;29.40;15.80;;;;;;;0.81;100.00;97822.42;270318;1269;22545;-89
2023/02/26 01:39:38;;;;;;;25.10;14.30;;;;;;;0.78;100.00;97816.55;271037;1269;22541;-90
2023/02/26 01:46:05;;;;;;;24.50;13.40;;;;;;;0.77;100.00;97829.98;270074;1268;22562;-89
2023/02/26 01:52:45;;;;;;;23.30;14.60;;;;;;;0.72;100.00;97840.46;269889;1268;22781;-89
2023/02/26 01:58:49;;;;;;;25.50;15.00;;;;;;;0.74;100.00;97856.05;269374;1264;26191;-89
2023/02/26 02:04:54;;;;;;;24.30;14.10;;;;;;;0.74;100.00;97867.52;268864;1260;22578;-89
2023/02/26 02:10:56;;;;;;;20.70;13.00;;;;;;;0.73;100.00;97885.11;269629;1262;22517;-90
2023/02/26 02:17:11;;;;;;;25.70;14.40;;;;;;;0.70;100.00;97880.73;269911;1269;23395;-89
2023/02/26 02:23:24;;;;;;;22.20;13.60;;;;;;;0.69;100.00;97882.38;272074;1266;22185;-89
2023/02/26 02:29:50;;;;;;;27.30;16.10;;;;;;;0.67;100.00;97894.48;273194;1268;25389;-89
2023/02/26 02:36:11;;;;;;;33.80;18.20;;;;;;;0.68;100.00;97929.52;270021;1269;22553;-89
2023/02/26 02:42:13;;;;;;;34.60;18.90;;;;;;;0.72;100.00;97947.04;270689;1269;23792;-89
2023/02/26 02:48:39;;;;;;;23.60;15.10;;;;;;;0.71;100.00;97945.40;270162;1269;25366;-88
2023/02/26 02:54:50;;;;;;;26.10;14.60;;;;;;;0.67;100.00;97952.89;271100;1270;22337;-90
2023/02/26 03:00:57;;;;;;;25.30;14.60;;;;;;;0.63;100.00;97940.66;273465;1268;22375;-89
2023/02/26 03:06:59;;;;;;;;;;;;;;;0.58;100.00;97927.80;273385;1268;23257;-90
2023/02/26 03:13:01;;;;;;;24.60;14.90;;;;;;;0.53;100.00;97916.56;273194;1269;23267;-90
2023/02/26 03:19:34;;;;;;;26.90;16.60;;;;;;;0.49;100.00;97916.58;272953;1268;25159;-89
2023/02/26 03:25:59;;;;;;;26.80;15.10;;;;;;;0.48;100.00;97935.92;271919;1269;22581;-89
2023/02/26 03:32:13;;;;;;;25.80;14.00;;;;;;;0.49;100.00;97969.13;272794;1268;22412;-89
2023/02/26 03:38:41;;;;;;;25.40;14.60;;;;;;;0.55;100.00;97993.79;271620;1268;23949;-90
2023/02/26 03:44:52;;;;;;;19.40;8.70;;;;;;;0.57;100.00;98004.79;272995;1268;22237;-90
2023/02/26 03:50:59;;;;;;;9.70;5.60;;;;;;;0.51;100.00;98005.45;271391;1270;22577;-90
2023/02/26 03:57:21;;;;;;;7.50;4.60;;;;;;;0.46;100.00;98004.58;270004;1268;22517;-89
2023/02/26 04:03:59;;;;;;;10.20;4.50;;;;;;;0.43;100.00;98002.63;270133;1268;24370;-92
2023/02/26 04:10:05;;;;;;;9.50;4.20;;;;;;;0.40;100.00;98020.98;270213;1268;22353;-89
2023/02/26 04:16:08;;;;;;;9.20;4.60;;;;;;;0.39;100.00;98046.79;269766;1262;23710;-89
2023/02/26 04:22:12;;;;;;;6.00;4.30;;;;;;;0.39;100.00;98059.48;271821;1268;22336;-90
2023/02/26 04:28:15;;;;;;;6.60;3.80;;;;;;;0.38;100.00;98075.05;271573;1268;22638;-91
2023/02/26 04:34:18;;;;;;;7.60;4.20;;;;;;;0.34;100.00;98078.29;272499;1269;23319;-91
2023/02/26 04:40:22;;;;;;;8.20;3.90;;;;;;;0.29;100.00;98086.78;271260;1268;23678;-90
2023/02/26 04:46:28;;;;;;;4.60;2.80;;;;;;;0.25;100.00;98099.90;270539;1268;23130;-90
2023/02/26 04:52:31;;;;;;;6.30;3.40;;;;;;;0.20;100.00;98108.98;271050;1267;22533;-90
2023/02/26 04:58:33;;;;;;;5.10;3.30;;;;;;;0.16;100.00;98108.61;270669;1268;23237;-89
2023/02/26 05:04:39;;;;;;;7.90;3.10;;;;;;;0.14;100.00;98111.64;270589;1268;22902;-90
2023/02/26 05:10:45;;;;;;;4.40;2.40;;;;;;;0.13;100.00;98123.10;269832;1268;25362;-90
2023/02/26 05:16:49;;;;;;;5.00;2.40;;;;;;;0.11;100.00;98130.56;269360;1265;22607;-90
2023/02/26 05:23:05;;;;;;;2.50;1.60;;;;;;;0.07;100.00;98125.42;270341;1268;22587;-90
2023/02/26 05:29:07;;;;;;;3.00;1.90;;;;;;;0.02;99.83;98130.46;269398;1265;25479;-91
2023/02/26 05:35:10;;;;;;;5.20;2.60;;;;;;;-0.03;99.63;98132.83;270516;1261;23254;-91
2023/02/26 05:41:13;;;;;;;10.00;2.60;;;;;;;-0.05;99.19;98147.66;269751;1269;25249;-91
2023/02/26 05:47:16;;;;;;;5.40;2.90;;;;;;;-0.09;98.99;98171.96;269738;1268;22567;-92
2023/02/26 05:53:20;;;;;;;4.70;2.70;;;;;;;-0.14;98.97;98194.52;270502;1268;22569;-92
2023/02/26 05:59:23;;;;;;;9.40;3.40;;;;;;;-0.14;98.52;98206.96;270722;1262;22562;-90
2023/02/26 06:05:27;;;;;;;10.50;4.00;;;;;;;-0.16;98.71;98218.10;270086;1266;23285;-89
2023/02/26 06:11:30;;;;;;;8.00;3.50;;;;;;;-0.20;98.88;98223.45;272611;1269;22317;-90
2023/02/26 06:17:33;;;;;;;11.60;4.90;;;;;;;-0.19;99.32;98245.11;272089;1268;22427;-90
2023/02/26 06:23:39;;;;;;;8.80;4.90;;;;;;;-0.14;99.81;98264.92;271145;1268;23544;-90
2023/02/26 06:29:44;;;;;;;12.00;4.60;;;;;;;-0.09;99.97;98276.95;272373;1268;22204;-90
2023/02/26 06:49:42;;;;;;;10.80;4.60;;;;;;;0.00;99.76;98294.00;270328;1268;22728;-90
2023/02/26 06:55:45;;;;;;;10.20;3.60;;;;;;;0.05;99.53;98297.25;270378;1268;22553;-90
2023/02/26 07:01:49;;;;;;;7.10;3.30;;;;;;;0.08;98.65;98304.31;269968;1268;22555;-90
2023/02/26 07:07:53;;;;;;;8.00;3.60;;;;;;;0.16;98.47;98305.34;270050;1268;23191;-90
2023/02/26 07:13:56;;;;;;;6.40;3.90;;;;;;;0.24;98.11;98307.65;270841;1265;22589;-91
2023/02/26 07:20:05;;;;;;;10.00;4.90;;;;;;;0.24;97.83;98308.96;270051;1264;22406;-91
2023/02/26 07:26:07;;;;;;;10.90;5.10;;;;;;;0.25;97.53;98317.94;270742;1269;22560;-89
2023/02/26 07:32:10;;;;;;;12.00;4.30;;;;;;;0.32;97.43;98323.98;269539;1268;22563;-90
2023/02/26 07:38:12;;;;;;;12.20;4.70;;;;;;;0.42;97.00;98327.70;270936;1268;23319;-90
2023/02/26 07:44:14;;;;;;;7.60;3.80;;;;;;;0.60;97.26;98340.73;270516;1268;22585;-90
2023/02/26 07:50:17;;;;;;;12.70;5.20;;;;;;;1.01;96.97;98369.48;271027;1265;22539;-89
2023/02/26 07:56:19;;;;;;;6.80;3.50;;;;;;;1.42;96.75;98382.19;270276;1268;22650;-89
2023/02/26 08:02:32;;;;;;;12.00;4.80;;;;;;;1.38;94.40;98389.99;272262;1269;22350;-90
2023/02/26 08:08:34;;;;;;;4.50;2.70;;;;;;;1.09;93.64;98404.98;270780;1269;24304;-91
2023/02/26 08:14:37;;;;;;;5.80;3.30;;;;;;;0.91;93.78;98414.84;272186;1267;22559;-89
2023/02/26 08:20:43;;;;;;;7.50;4.00;;;;;;;0.87;93.97;98425.53;270645;1271;22548;-89
2023/02/26 08:26:45;;;;;;;8.30;4.00;;;;;;;0.83;93.90;98429.75;270843;1268;22368;-89
2023/02/26 08:32:52;;;;;;;8.60;3.70;;;;;;;0.81;94.09;98431.13;271184;1264;23765;-89
2023/02/26 08:39:23;;;;;;;4.40;2.60;;;;;;;0.87;93.73;98439.39;272168;1268;22364;-90
2023/02/26 08:45:33;;;;;;;7.80;2.90;;;;;;;0.87;92.73;98450.87;272908;1259;23043;-90
2023/02/26 08:51:36;;;;;;;7.40;3.50;;;;;;;0.77;92.60;98463.08;272846;1262;22950;-90
2023/02/26 08:57:41;;;;;;;7.10;3.50;;;;;;;0.62;92.90;98467.70;271517;1268;22346;-90
2023/02/26 09:03:44;;;;;;;7.60;3.00;;;;;;;0.58;93.46;98476.47;270753;1268;22328;-89
2023/02/26 09:09:46;;;;;;;8.50;3.50;;;;;;;0.55;93.27;98483.03;271828;1265;23920;-90
2023/02/26 09:15:48;;;;;;;6.70;3.60;;;;;;;0.58;93.32;98493.67;270679;1269;22691;-89
2023/02/26 09:21:50;;;;;;;6.80;2.30;;;;;;;0.66;93.76;98509.78;271765;1269;22324;-89
2023/02/26 09:27:52;;;;;;;5.00;2.60;;;;;;;1.09;93.25;98518.36;272436;1262;22244;-88
2023/02/26 09:33:57;;;;;;;3.70;2.10;;;;;;;1.41;91.57;98523.63;272710;1269;22506;-90
2023/02/26 09:39:59;;;;;;;14.90;4.60;;;;;;;1.39;91.15;98533.05;271667;1269;22417;-90
2023/02/26 09:46:21;;;;;;;7.20;2.50;;;;;;;1.44;91.29;98539.79;272855;1268;23611;-89
2023/02/26 09:52:23;;;;;;;6.40;2.00;;;;;;;2.09;91.39;98541.63;270054;1269;22471;-88
2023/02/26 09:58:31;;;;;;;7.70;3.10;;;;;;;3.34;90.70;98537.13;269454;1261;23536;-88
2023/02/26 10:04:50;;;;;;;5.30;2.30;;;;;;;4.24;88.14;98534.73;269882;1270;22589;-88
2023/02/26 10:11:03;;;;;;;4.10;2.60;;;;;;;4.31;86.16;98545.30;270245;1269;22504;-88
2023/02/26 10:17:15;;;;;;;6.90;2.80;;;;;;;4.39;85.26;98556.13;272492;1268;22355;-90
2023/02/26 10:23:24;;;;;;;4.90;2.20;;;;;;;4.22;83.83;98564.94;273165;1272;24354;-88
2023/02/26 10:29:35;;;;;;;9.10;2.90;;;;;;;3.76;82.50;98576.21;269315;1269;23681;-90
2023/02/26 10:35:47;;;;;;;2.80;2.00;;;;;;;2.76;81.53;98583.50;270065;1271;22412;-91
2023/02/26 10:41:52;;;;;;;9.90;3.30;;;;;;;2.06;81.66;98589.67;270989;1268;22583;-90
2023/02/26 10:48:16;;;;;;;7.10;2.60;;;;;;;1.72;81.98;98591.83;270030;1263;204617;-89
2023/02/26 10:54:26;;;;;;;5.30;2.10;;;;;;;1.67;81.93;98600.61;269577;1268;22551;-90
2023/02/26 11:00:28;;;;;;;3.10;1.90;;;;;;;2.08;82.10;98607.80;269809;1269;25554;-90
2023/02/26 11:06:46;;;;;;;11.20;3.10;;;;;;;2.84;80.95;98609.52;269681;1268;22513;-90
2023/02/26 11:12:48;;;;;;;3.40;1.70;;;;;;;2.93;79.67;98620.88;270255;1262;22211;-92
2023/02/26 11:18:55;;;;;;;6.50;2.50;;;;;;;2.91;80.10;98628.63;271145;1269;22540;-90
2023/02/26 11:25:01;;;;;;;5.50;2.10;;;;;;;3.43;81.02;98635.58;271089;1268;23068;-91
2023/02/26 11:31:09;;;;;;;4.70;2.30;;;;;;;4.04;80.80;98644.48;270855;1269;22367;-91
2023/02/26 11:37:22;;;;;;;4.30;2.10;;;;;;;4.61;79.67;98655.59;270676;1269;22541;-91
2023/02/26 11:43:35;;;;;;;3.70;2.30;;;;;;;4.74;78.23;98665.71;271129;1269;23060;-90
2023/02/26 11:49:42;;;;;;;5.70;3.70;;;;;;;4.00;78.28;98672.82;271547;1269;25177;-91
2023/02/26 11:56:23;;;;;;;5.00;3.40;;;;;;;2.96;79.20;98683.60;270354;1269;22581;-91
2023/02/26 12:02:33;;;;;;;7.30;2.70;;;;;;;2.12;81.93;98696.64;270931;1269;25378;-91
2023/02/26 12:08:37;;;;;;;3.80;2.40;;;;;;;1.64;83.24;98707.64;270306;1269;22549;-91
2023/02/26 12:14:56;;;;;;;5.10;3.10;;;;;;;1.40;84.26;98713.14;269800;1268;25260;-90
2023/02/26 12:21:09;;;;;;;6.50;2.70;;;;;;;1.29;85.28;98720.20;271807;1268;23729;-91
2023/02/26 12:27:30;;;;;;;9.90;4.20;;;;;;;1.40;85.63;98730.45;270811;1268;22590;-91
2023/02/26 12:34:24;;;;;;;;;;;;;;;;;;;;;
2023/02/26 12:41:18;;;;;;;8.30;4.20;;;;;;;1.88;85.01;98740.15;271052;1268;22534;-90
2023/02/26 12:47:32;;;;;;;7.70;3.50;;;;;;;2.00;84.86;98739.40;271464;1269;22219;-92
2023/02/26 12:53:58;;;;;;;8.00;3.40;;;;;;;2.22;84.56;98741.30;271994;1269;22297;-91
2023/02/26 13:00:23;;;;;;;;;;;;;;;;;;;;;
2023/02/26 13:07:00;;;;;;;12.10;5.10;;;;;;;2.07;82.78;98768.59;271979;1268;22338;-92
2023/02/26 13:13:30;;;;;;;8.20;3.50;;;;;;;1.52;82.36;98785.81;273411;1269;22241;-90
2023/02/26 13:19:42;;;;;;;10.90;3.60;;;;;;;1.16;82.59;98797.73;272049;1268;23662;-90
2023/02/26 13:26:00;;;;;;;7.30;3.50;;;;;;;0.99;82.51;98809.94;270575;1269;22234;-89
2023/02/26 13:32:13;;;;;;;6.80;3.10;;;;;;;0.86;82.77;98821.66;271627;1268;22575;-91
2023/02/26 13:38:32;;;;;;;6.10;3.30;;;;;;;0.90;82.92;98824.65;271102;1273;22541;-90
2023/02/26 13:44:49;;;;;;;11.20;4.10;;;;;;;0.93;82.90;98834.11;269868;1267;23167;-89
2023/02/26 13:51:03;;;;;;;6.40;3.50;;;;;;;0.81;82.77;98848.31;272203;1269;22323;-91
2023/02/26 13:57:33;;;;;;;8.20;3.30;;;;;;;0.53;82.33;98846.61;273447;1260;23412;-90
2023/02/26 14:03:40;;;;;;;6.70;3.10;;;;;;;0.33;81.96;98842.48;272193;1268;22620;-90
2023/02/26 14:09:59;;;;;;;7.50;3.40;;;;;;;0.30;81.98;98856.42;270592;1268;25387;-90
2023/02/26 14:16:22;;;;;;;6.00;2.90;;;;;;;0.35;81.66;98870.33;270318;1267;22673;-90
2023/02/26 14:22:40;;;;;;;7.30;3.30;;;;;;;0.44;81.35;98876.40;271949;1267;22331;-90
2023/02/26 14:29:15;;;;;;;8.60;3.60;;;;;;;0.53;81.17;98874.78;270769;1269;23289;-91
2023/02/26 14:35:26;;;;;;;18.90;5.50;;;;;;;0.61;80.68;98878.83;271239;1269;22586;-90
2023/02/26 14:41:44;;;;;;;17.60;4.90;;;;;;;0.63;80.43;98881.61;271882;1268;22327;-90
2023/02/26 14:47:51;;;;;;;7.10;3.40;;;;;;;0.66;80.72;98881.89;270088;1270;23900;-90
2023/02/26 14:54:07;;;;;;;5.80;3.30;;;;;;;0.69;80.42;98882.63;270623;1269;22541;-90
2023/02/26 15:00:29;;;;;;;11.00;3.60;;;;;;;0.66;80.18;98892.50;270150;1267;23151;-91
2023/02/26 15:06:56;;;;;;;7.10;3.50;;;;;;;0.65;79.99;98905.05;271335;1270;22210;-91
2023/02/26 15:13:36;;;;;;;11.10;4.80;;;;;;;0.61;79.94;98914.39;273563;1268;22681;-89
2023/02/26 15:19:59;;;;;;;13.80;4.60;;;;;;;0.58;80.10;98930.77;272673;1269;22563;-89
2023/02/26 15:26:05;;;;;;;18.30;5.80;;;;;;;0.56;79.98;98940.80;270717;1269;22204;-89
2023/02/26 15:32:24;;;;;;;8.50;4.20;;;;;;;0.54;79.94;98954.27;270619;1270;22617;-88
2023/02/26 15:39:02;;;;;;;10.60;4.40;;;;;;;0.48;79.48;98947.23;271850;1264;22793;-90
2023/02/26 15:45:15;;;;;;;16.20;5.70;;;;;;;0.39;79.60;98943.73;270596;1269;24305;-88
2023/02/26 15:51:18;;;;;;;7.90;4.70;;;;;;;0.40;80.23;98961.92;271455;1254;24256;-89
2023/02/26 15:57:24;;;;;;;9.60;4.70;;;;;;;0.42;80.50;98979.64;271926;1267;22488;-89
2023/02/26 16:03:33;;;;;;;12.00;5.60;;;;;;;0.43;80.96;98991.41;270679;1268;25389;-90
2023/02/26 16:09:39;;;;;;;10.30;4.50;;;;;;;0.36;80.31;99003.50;271426;1268;23709;-89
2023/02/26 16:15:42;;;;;;;6.00;3.70;;;;;;;0.21;79.89;99018.27;270600;1269;23174;-89
2023/02/26 16:21:48;;;;;;;10.00;4.10;;;;;;;0.08;79.94;99027.60;270275;1265;22580;-89
2023/02/26 16:27:59;;;;;;;7.70;4.70;;;;;;;-0.00;80.21;99045.02;271501;1267;25356;-89
2023/02/26 16:34:21;;;;;;;14.60;5.50;;;;;;;-0.05;80.57;99053.74;271803;1268;22252;-89
2023/02/26 16:40:26;;;;;;;40.60;11.00;;;;;;;-0.05;80.81;99060.04;271805;1267;22373;-90
2023/02/26 16:46:43;;;;;;;13.00;5.10;;;;;;;-0.08;80.64;99071.05;273321;1268;22512;-90
2023/02/26 16:52:50;;;;;;;11.50;5.20;;;;;;;-0.10;81.30;99088.15;273365;1268;22858;-89
2023/02/26 16:59:01;;;;;;;11.40;5.30;;;;;;;-0.04;81.65;99103.17;273440;1269;23030;-90
2023/02/26 17:05:27;;;;;;;13.30;6.70;;;;;;;-0.04;81.47;99113.29;272945;1267;22503;-89
2023/02/26 17:11:42;;;;;;;12.50;6.00;;;;;;;-0.12;81.22;99108.31;271573;1268;22961;-89
2023/02/26 17:17:47;;;;;;;13.30;6.40;;;;;;;-0.21;81.16;99113.56;271916;1253;23032;-88
2023/02/26 17:23:51;;;;;;;13.20;4.80;;;;;;;-0.26;80.95;99125.08;273421;1269;22153;-88
2023/02/26 17:37:32;;;;;;;12.50;5.30;;;;;;;-0.35;81.43;99152.75;271236;1268;22173;-90
2023/02/26 17:43:41;;;;;;;26.60;7.80;;;;;;;-0.34;81.61;99163.08;272734;1268;22336;-90
2023/02/26 17:56:58;;;;;;;10.40;4.40;;;;;;;-0.32;82.06;99155.76;272952;1270;22573;-89
2023/02/26 18:03:38;;;;;;;;;;;;;;;-0.34;81.64;99154.02;271955;1268;23167;-90
2023/02/26 18:09:47;;;;;;;10.70;4.80;;;;;;;-0.35;81.73;99151.36;272274;1268;23025;-91
2023/02/26 18:15:57;;;;;;;8.50;4.50;;;;;;;-0.39;81.87;99159.98;272302;1264;23060;-90
2023/02/26 18:22:16;;;;;;;10.60;4.80;;;;;;;-0.41;81.85;99166.98;273565;1267;22238;-90
2023/02/26 18:28:25;;;;;;;7.60;4.20;;;;;;;-0.44;81.96;99162.61;272393;1268;22363;-90
2023/02/26 18:34:33;;;;;;;8.40;4.80;;;;;;;-0.43;81.98;99154.20;272568;1268;22583;-87
2023/02/26 18:40:52;;;;;;;8.30;4.10;;;;;;;-0.41;82.37;99165.61;272259;1267;22331;-90
2023/02/26 18:47:18;;;;;;;11.10;5.20;;;;;;;-0.41;83.04;99182.84;271675;1265;22644;-89
2023/02/26 18:53:56;;;;;;;12.00;5.00;;;;;;;-0.48;83.04;99200.73;273239;1267;22374;-89
2023/02/26 19:00:01;;;;;;;14.90;6.00;;;;;;;-0.51;82.95;99214.60;271776;1268;24063;-89
2023/02/26 19:06:14;;;;;;;25.20;10.50;;;;;;;-0.50;82.76;99227.34;271139;1268;23345;-89
2023/02/26 19:12:19;;;;;;;19.20;7.00;;;;;;;-0.51;82.53;99232.90;271798;1268;23177;-90
2023/02/26 19:18:21;;;;;;;47.70;12.40;;;;;;;-0.51;82.53;99219.29;273619;1267;23647;-89
2023/02/26 19:24:28;;;;;;;29.70;7.70;;;;;;;-0.51;82.53;99219.49;273275;1262;22424;-91
2023/02/26 19:30:33;;;;;;;33.70;10.30;;;;;;;-0.46;83.10;99230.33;272558;1264;22346;-90
2023/02/26 19:36:56;;;;;;;44.80;13.90;;;;;;;-0.43;83.35;99250.83;272750;1267;22614;-90
2023/02/26 19:43:03;;;;;;;72.20;17.60;;;;;;;-0.44;82.96;99266.22;271895;1268;23028;-90
2023/02/26 19:49:14;;;;;;;43.00;12.60;;;;;;;-0.48;82.80;99266.41;271697;1268;22329;-91
2023/02/26 19:55:24;;;;;;;22.30;8.00;;;;;;;-0.49;82.92;99271.74;271192;1268;22391;-90
2023/02/26 20:01:29;;;;;;;24.70;10.00;;;;;;;-0.49;83.10;99275.41;273287;1268;22567;-89
2023/02/26 20:07:33;;;;;;;29.10;10.90;;;;;;;-0.43;83.22;99274.98;270619;1268;22658;-89
2023/02/26 20:13:35;;;;;;;25.50;9.90;;;;;;;-0.38;83.04;99274.14;270231;1268;23523;-89
2023/02/26 20:19:38;;;;;;;23.20;9.00;;;;;;;-0.38;83.20;99284.73;270940;1268;22634;-89
2023/02/26 20:25:42;;;;;;;19.30;7.80;;;;;;;-0.38;83.44;99291.77;270276;1267;22629;-89
2023/02/26 20:31:48;;;;;;;47.00;15.60;;;;;;;-0.42;83.09;99300.45;270742;1267;22583;-89
2023/02/26 20:37:52;;;;;;;69.10;17.40;;;;;;;-0.49;83.15;99301.82;272830;1268;22326;-90
2023/02/26 20:43:55;;;;;;;41.80;12.20;;;;;;;-0.53;83.39;99303.69;271058;1268;22439;-89
2023/02/26 20:49:56;;;;;;;38.70;14.20;;;;;;;-0.55;83.41;99308.41;273398;1268;22200;-89
2023/02/26 20:55:58;;;;;;;37.90;12.10;;;;;;;-0.54;83.37;99310.58;272287;1267;22225;-89
2023/02/26 21:02:00;;;;;;;22.40;9.00;;;;;;;-0.55;83.24;99316.39;271431;1262;25226;-90
2023/02/26 21:08:05;;;;;;;22.40;9.00;;;;;;;-0.56;83.26;99323.55;270570;1268;25389;-89
2023/02/26 21:14:08;;;;;;;23.20;9.70;;;;;;;-0.56;83.14;99326.39;270812;1268;23077;-88
2023/02/26 21:20:16;;;;;;;32.80;12.50;;;;;;;-0.57;83.12;99329.70;273849;1268;22226;-89
2023/02/26 21:26:21;;;;;;;44.10;13.80;;;;;;;-0.55;83.41;99331.38;271224;1267;23845;-89
2023/02/26 21:32:26;;;;;;;44.90;13.90;;;;;;;-0.51;83.54;99336.06;270839;1268;22241;-88
2023/02/26 21:38:27;;;;;;;25.30;9.80;;;;;;;-0.48;83.54;99342.45;270641;1261;23288;-89
2023/02/26 21:44:37;;;;;;;32.50;11.30;;;;;;;-0.44;83.81;99341.41;270334;1268;22589;-89
2023/02/26 21:50:39;;;;;;;23.40;9.50;;;;;;;-0.48;83.74;99339.87;271433;1267;22551;-89
2023/02/26 21:56:47;;;;;;;24.10;9.90;;;;;;;-0.48;84.62;99344.83;271988;1267;22409;-89
2023/02/26 22:02:49;;;;;;;29.70;10.00;;;;;;;-0.47;84.43;99351.58;272137;1268;22568;-89
2023/02/26 22:08:51;;;;;;;21.30;9.70;;;;;;;-0.43;84.51;99355.91;272930;1268;23318;-90
2023/02/26 22:14:56;;;;;;;19.50;8.20;;;;;;;-0.42;84.72;99360.70;271326;1268;23387;-90
2023/02/26 22:20:58;;;;;;;21.50;8.70;;;;;;;-0.40;85.32;99362.23;270353;1268;22531;-89
2023/02/26 22:27:08;;;;;;;16.80;7.70;;;;;;;-0.38;85.95;99370.05;271013;1260;22568;-88
2023/02/26 22:33:10;;;;;;;23.90;11.10;;;;;;;-0.39;86.51;99370.77;271650;1268;22603;-90
2023/02/26 22:39:13;;;;;;;36.10;17.60;;;;;;;-0.43;86.44;99375.62;270447;1264;22550;-89
2023/02/26 22:45:16;;;;;;;42.20;19.60;;;;;;;-0.48;86.50;99380.43;269911;1267;1460697;-90
2023/02/26 22:51:47;;;;;;;46.30;20.70;;;;;;;-0.47;86.94;99382.34;271723;1268;22580;-90
2023/02/26 22:57:51;;;;;;;46.30;20.00;;;;;;;-0.44;87.09;99386.34;271815;1268;25290;-88
2023/02/26 23:03:53;;;;;;;44.60;21.00;;;;;;;-0.45;87.15;99388.89;272160;1268;22247;-89
2023/02/26 23:09:59;;;;;;;44.40;21.30;;;;;;;-0.45;87.33;99396.36;272565;1267;22380;-90
2023/02/26 23:16:08;;;;;;;46.70;22.10;;;;;;;-0.42;87.49;99403.84;273588;1271;22275;-90
2023/02/26 23:22:10;;;;;;;40.40;20.70;;;;;;;-0.42;87.56;99410.14;272241;1267;25307;-90
2023/02/26 23:28:15;;;;;;;41.80;20.20;;;;;;;-0.45;87.63;99412.94;273358;1263;22365;-91
2023/02/26 23:34:16;;;;;;;42.60;20.40;;;;;;;-0.46;87.93;99415.91;272346;1268;22523;-91
2023/02/26 23:40:19;;;;;;;41.40;19.70;;;;;;;-0.45;87.92;99415.77;271536;1268;22396;-89
2023/02/26 23:46:44;;;;;;;37.00;17.00;;;;;;;-0.43;88.08;99422.78;272970;1267;22739;-91
2023/02/26 23:52:47;;;;;;;40.70;17.40;;;;;;;-0.44;87.99;99426.24;272105;1268;23747;-90
2023/02/26 23:58:52;;;;;;;41.00;17.50;;;;;;;-0.46;88.09;99430.73;271105;1268;22333;-90
